Aviation Digital Data Service (ADDS)

Output produced by METARs form (1103 UTC 28 March 2015)
found at http://aviationweather.gov/adds/metars/
 
KBTV 280527Z 2806/2906 35010KT P6SM VCSH SCT012 OVC025 
     TEMPO 2806/2810 5SM -SHSN OVC012 
     FM281200 35010G18KT P6SM OVC050 
     FM281800 34010G20KT P6SM BKN120 
     FM282300 34005KT P6SM BKN150